Terminal Aerodrome Forecast
Issued by NWS

Home | Current Version | Previous Version | Text Only | Print | Product List | Glossary On
Versions: 1 2 3 4 5 6 7 8 9 10 11 12 13 14 15 16
000
FTUS45 KABQ 022329
TAFLVS
TAF
KLVS 022329Z 0300/0324 23013G21KT P6SM FEW200
     FM030130 25008KT P6SM SKC
     FM030900 02006KT P6SM SKC
     FM031730 23019G28KT P6SM SKC=

USA.gov is the U.S. government's official web portal to all federal, state and local government web resources and services.